Terminal Aerodrome Forecast
Issued by NWS Omaha/Valley, NE

Home | Current Version | Previous Version | Text Only | Print | Product List | Glossary On
Versions: 1 2 3 4 5 6 7 8 9 10 11 12 13 14 15 16 17 18 19 20 21 22 23 24 25 26 27 28 29 30 31 32 33 34 35 36
000
FTUS43 KOAX 181720
TAFOFK
TAF
KOFK 181720Z 1818/1918 16013G19KT P6SM SCT250
     FM182200 15008KT P6SM BKN250
      TEMPO 1910/1914 5SM BR BKN025
     FM191500 20016G22KT P6SM BKN250=

USA.gov is the U.S. government's official web portal to all federal, state and local government web resources and services.